createdAt,value
2018-08-20T00:00:05.528Z,12.80
2018-08-20T00:02:36.592Z,12.80
2018-08-20T00:05:05.930Z,12.80
2018-08-20T00:07:34.153Z,12.70
2018-08-20T00:10:02.380Z,12.70
2018-08-20T00:12:30.529Z,12.60
2018-08-20T00:14:58.715Z,12.60
2018-08-20T00:17:26.873Z,12.70
2018-08-20T00:19:55.061Z,12.70
2018-08-20T00:22:23.228Z,12.70
2018-08-20T00:25:02.909Z,12.60
2018-08-20T00:27:31.730Z,12.60
2018-08-20T00:29:59.937Z,12.50
2018-08-20T00:32:28.098Z,12.50
2018-08-20T00:34:56.271Z,12.40
2018-08-20T00:37:24.466Z,12.40
2018-08-20T00:39:52.581Z,12.40
2018-08-20T00:42:20.734Z,12.40
2018-08-20T00:44:48.974Z,12.40
2018-08-20T00:47:17.173Z,12.40
2018-08-20T00:49:45.441Z,12.40
2018-08-20T00:52:13.723Z,12.20
2018-08-20T00:54:41.872Z,12.30
2018-08-20T00:57:10.058Z,12.30
2018-08-20T00:59:38.224Z,12.30
2018-08-20T01:02:06.365Z,12.30
2018-08-20T01:04:34.573Z,12.30
2018-08-20T01:07:03.060Z,12.30
2018-08-20T01:09:31.241Z,12.40
2018-08-20T01:11:59.404Z,12.40
2018-08-20T01:14:27.568Z,12.50
2018-08-20T01:16:55.761Z,12.70
2018-08-20T01:19:23.914Z,12.70
2018-08-20T01:21:52.068Z,12.80
2018-08-20T01:24:20.279Z,12.90
2018-08-20T01:26:48.444Z,13.00
2018-08-20T01:29:16.602Z,13.10
2018-08-20T01:31:44.790Z,13.20
2018-08-20T01:34:13.290Z,13.30
2018-08-20T01:36:43.062Z,13.50
2018-08-20T01:39:11.254Z,13.60
2018-08-20T01:41:39.438Z,13.60
2018-08-20T01:44:07.686Z,13.70
2018-08-20T01:46:35.873Z,13.80
2018-08-20T01:49:04.058Z,14.00
2018-08-20T01:51:32.221Z,14.10
2018-08-20T01:54:00.421Z,14.10
2018-08-20T01:56:28.694Z,14.20
2018-08-20T01:58:56.861Z,14.30
2018-08-20T02:01:25.090Z,14.40
2018-08-20T02:03:53.302Z,14.40
2018-08-20T02:06:21.893Z,14.40
2018-08-20T02:08:50.069Z,14.40
2018-08-20T02:11:18.241Z,14.30
2018-08-20T02:13:46.402Z,14.40
2018-08-20T02:16:14.566Z,14.30
2018-08-20T02:18:42.740Z,14.30
2018-08-20T02:21:10.935Z,14.40
2018-08-20T02:23:39.101Z,14.40
2018-08-20T02:26:07.365Z,14.40
2018-08-20T02:28:35.525Z,14.40
2018-08-20T02:31:03.700Z,14.40
2018-08-20T02:33:31.930Z,14.40
2018-08-20T02:36:00.215Z,14.50
2018-08-20T02:38:29.333Z,14.60
2018-08-20T02:40:57.451Z,14.70
2018-08-20T02:43:25.609Z,14.80
2018-08-20T02:45:53.785Z,14.80
2018-08-20T02:48:21.917Z,14.80
2018-08-20T02:50:50.122Z,14.70
2018-08-20T02:53:18.295Z,14.70
2018-08-20T02:55:46.471Z,14.70
2018-08-20T02:58:14.665Z,14.60
2018-08-20T03:00:42.835Z,14.50
2018-08-20T03:03:11.017Z,14.40
2018-08-20T03:05:39.188Z,14.40
2018-08-20T03:08:07.364Z,14.30
2018-08-20T03:10:35.535Z,14.30
2018-08-20T03:13:03.710Z,14.30
2018-08-20T03:15:31.873Z,14.40
2018-08-20T03:18:00.058Z,14.50
2018-08-20T03:20:28.194Z,14.60
2018-08-20T03:22:56.424Z,14.70
2018-08-20T03:25:24.578Z,14.80
2018-08-20T03:27:52.740Z,14.90
2018-08-20T03:30:20.889Z,15.00
2018-08-20T03:32:49.106Z,15.10
2018-08-20T03:35:17.228Z,15.20
2018-08-20T03:37:45.456Z,15.40
2018-08-20T03:40:13.615Z,15.50
2018-08-20T03:42:42.242Z,15.60
2018-08-20T03:45:10.903Z,15.70
2018-08-20T03:47:39.081Z,15.80
2018-08-20T03:50:09.465Z,15.80
2018-08-20T03:52:37.625Z,15.80
2018-08-20T03:55:05.890Z,15.90
2018-08-20T03:57:34.385Z,15.90
2018-08-20T04:00:02.614Z,16.00
2018-08-20T04:02:30.776Z,16.10
2018-08-20T04:04:58.944Z,16.10
2018-08-20T04:07:27.128Z,16.10
2018-08-20T04:09:55.302Z,16.10
2018-08-20T04:12:23.466Z,16.20
2018-08-20T04:14:51.641Z,16.20
2018-08-20T04:17:19.844Z,16.20
2018-08-20T04:19:48.001Z,16.30
2018-08-20T04:22:16.158Z,16.20
2018-08-20T04:24:44.342Z,16.30
2018-08-20T04:27:12.508Z,16.30
2018-08-20T04:29:40.695Z,16.30
2018-08-20T04:32:08.854Z,16.30
2018-08-20T04:34:37.039Z,16.30
2018-08-20T04:37:06.013Z,16.30
2018-08-20T04:39:34.206Z,16.30
2018-08-20T04:42:02.415Z,16.30
2018-08-20T04:44:30.560Z,16.30
2018-08-20T04:46:58.726Z,16.20
2018-08-20T04:49:27.929Z,16.20
2018-08-20T04:51:56.080Z,16.20
2018-08-20T04:54:24.276Z,16.20
2018-08-20T04:56:52.450Z,16.20
2018-08-20T04:59:20.613Z,16.20
2018-08-20T05:01:48.785Z,16.20
2018-08-20T05:04:16.978Z,16.20
2018-08-20T05:06:45.136Z,16.30
2018-08-20T05:09:13.320Z,16.20
2018-08-20T05:11:41.487Z,16.20
2018-08-20T05:14:09.669Z,16.30
2018-08-20T05:16:37.837Z,16.30
2018-08-20T05:19:06.015Z,16.40
2018-08-20T05:21:34.174Z,16.40
2018-08-20T05:24:02.385Z,16.40
2018-08-20T05:26:30.679Z,16.40
2018-08-20T05:28:58.917Z,16.40
2018-08-20T05:31:27.086Z,16.30
2018-08-20T05:33:55.260Z,16.40
2018-08-20T05:36:23.426Z,16.40
2018-08-20T05:38:51.552Z,16.40
2018-08-20T05:41:19.695Z,16.40
2018-08-20T05:43:47.850Z,16.50
2018-08-20T05:46:15.976Z,16.50
2018-08-20T05:48:44.117Z,16.50
2018-08-20T05:51:12.270Z,16.50
2018-08-20T05:53:40.403Z,16.60
2018-08-20T05:56:08.557Z,16.60
2018-08-20T05:58:36.719Z,16.70
2018-08-20T06:01:04.992Z,16.80
2018-08-20T06:03:33.161Z,16.80
2018-08-20T06:06:01.476Z,16.90
2018-08-20T06:08:29.594Z,17.00
2018-08-20T06:10:57.726Z,17.20
2018-08-20T06:13:25.834Z,17.30
2018-08-20T06:15:53.962Z,17.30
2018-08-20T06:18:22.086Z,17.30
2018-08-20T06:20:50.227Z,17.40
2018-08-20T06:23:18.354Z,17.50
2018-08-20T06:25:46.490Z,17.50
2018-08-20T06:28:14.622Z,17.60
2018-08-20T06:30:42.750Z,17.60
2018-08-20T06:33:10.938Z,17.80
2018-08-20T06:35:39.114Z,17.90
2018-08-20T06:38:07.211Z,18.10
2018-08-20T06:40:35.350Z,18.30
2018-08-20T06:43:03.473Z,18.40
2018-08-20T06:45:31.604Z,18.40
2018-08-20T06:47:59.725Z,18.30
2018-08-20T06:50:27.882Z,18.20
2018-08-20T06:52:56.097Z,18.20
2018-08-20T06:55:24.223Z,18.40
2018-08-20T06:57:52.345Z,18.60
2018-08-20T07:00:20.465Z,18.60
2018-08-20T07:02:48.614Z,18.60
2018-08-20T07:05:16.778Z,18.70
2018-08-20T07:07:44.929Z,18.70
2018-08-20T07:10:13.889Z,18.70
2018-08-20T07:12:42.236Z,18.60
2018-08-20T07:15:12.249Z,18.60
2018-08-20T07:17:40.413Z,18.50
2018-08-20T07:20:10.506Z,18.40
2018-08-20T07:22:38.670Z,18.50
2018-08-20T07:25:07.510Z,18.50
2018-08-20T07:27:36.598Z,18.50
2018-08-20T07:30:06.954Z,18.50
2018-08-20T07:32:35.162Z,18.50
2018-08-20T07:35:03.326Z,18.40
2018-08-20T07:37:31.474Z,18.50
2018-08-20T07:39:59.609Z,18.40
2018-08-20T07:42:27.803Z,18.30
2018-08-20T07:44:55.901Z,18.30
2018-08-20T07:47:24.050Z,18.30
2018-08-20T07:49:52.190Z,18.30
2018-08-20T07:52:20.337Z,18.50
2018-08-20T07:54:48.466Z,18.70
2018-08-20T07:57:16.609Z,19.00
2018-08-20T07:59:44.745Z,19.20
2018-08-20T08:02:12.883Z,19.10
2018-08-20T08:04:41.816Z,19.00
2018-08-20T08:07:09.954Z,18.80
2018-08-20T08:09:38.093Z,18.30
2018-08-20T08:12:06.679Z,18.00
2018-08-20T08:14:34.798Z,17.80
2018-08-20T08:17:02.950Z,17.60
2018-08-20T08:19:31.064Z,17.50
2018-08-20T08:21:59.206Z,17.50
2018-08-20T08:24:27.333Z,17.70
2018-08-20T08:26:55.474Z,17.80
2018-08-20T08:29:23.602Z,18.00
2018-08-20T08:31:51.728Z,18.20
2018-08-20T08:34:19.845Z,18.30
2018-08-20T08:36:47.985Z,18.60
2018-08-20T08:39:16.112Z,18.90
2018-08-20T08:41:44.242Z,19.10
2018-08-20T08:44:12.359Z,19.20
2018-08-20T08:46:40.480Z,19.50
2018-08-20T08:49:08.615Z,19.40
2018-08-20T08:51:36.792Z,19.40
2018-08-20T08:54:04.920Z,19.90
2018-08-20T08:56:33.070Z,20.50
2018-08-20T08:59:01.203Z,20.90
2018-08-20T09:01:29.337Z,20.70
2018-08-20T09:03:57.477Z,20.80
2018-08-20T09:06:25.609Z,21.30
2018-08-20T09:08:53.792Z,21.50
2018-08-20T09:11:22.142Z,21.70
2018-08-20T09:13:50.339Z,22.00
2018-08-20T09:16:18.626Z,22.10
2018-08-20T09:18:46.759Z,22.40
2018-08-20T09:21:14.875Z,22.60
2018-08-20T09:23:43.037Z,22.80
2018-08-20T09:26:11.168Z,22.60
2018-08-20T09:28:39.308Z,22.10
2018-08-20T09:31:07.441Z,21.90
2018-08-20T09:33:35.590Z,21.50
2018-08-20T09:36:03.725Z,21.10
2018-08-20T09:38:31.861Z,20.80
2018-08-20T09:41:00.048Z,20.60
2018-08-20T09:43:28.186Z,20.30
2018-08-20T09:45:56.322Z,20.10
2018-08-20T09:48:24.459Z,20.20
2018-08-20T09:50:52.589Z,20.30
2018-08-20T09:53:20.748Z,20.30
2018-08-20T09:55:48.868Z,20.50
2018-08-20T09:58:16.998Z,20.50
2018-08-20T10:00:45.122Z,20.60
2018-08-20T10:03:13.270Z,20.80
2018-08-20T10:05:41.405Z,20.80
2018-08-20T10:08:09.774Z,20.80
2018-08-20T10:10:37.898Z,20.60
2018-08-20T10:13:06.057Z,20.50
2018-08-20T10:15:34.189Z,20.40
2018-08-20T10:18:02.390Z,20.10
2018-08-20T10:20:30.533Z,19.80
2018-08-20T10:22:58.672Z,19.80
2018-08-20T10:25:26.792Z,19.90
2018-08-20T10:27:54.940Z,20.20
2018-08-20T10:30:23.069Z,20.50
2018-08-20T10:32:51.210Z,20.80
2018-08-20T10:35:19.322Z,20.90
2018-08-20T10:37:47.619Z,21.20
2018-08-20T10:40:15.599Z,21.40
2018-08-20T10:42:43.741Z,21.50
2018-08-20T10:45:15.349Z,21.50
2018-08-20T10:47:44.749Z,21.20
2018-08-20T10:50:14.523Z,21.20
2018-08-20T10:52:43.297Z,21.20
2018-08-20T10:55:11.428Z,21.10
2018-08-20T10:57:39.576Z,21.10
2018-08-20T11:00:07.969Z,20.90
2018-08-20T11:02:36.131Z,20.80
2018-08-20T11:05:04.770Z,20.60
2018-08-20T11:07:32.932Z,20.40
2018-08-20T11:10:01.062Z,20.20
2018-08-20T11:12:29.182Z,20.10
2018-08-20T11:14:57.332Z,20.10
2018-08-20T11:17:25.577Z,20.30
2018-08-20T11:19:53.726Z,20.60
2018-08-20T11:22:21.844Z,20.80
2018-08-20T11:24:49.974Z,20.90
2018-08-20T11:27:18.096Z,20.90
2018-08-20T11:29:46.233Z,20.80
2018-08-20T11:32:14.375Z,20.60
2018-08-20T11:34:42.519Z,20.30
2018-08-20T11:37:11.246Z,20.10
2018-08-20T11:39:39.381Z,19.90
2018-08-20T11:42:07.514Z,19.70
2018-08-20T11:44:35.661Z,19.50
2018-08-20T11:47:04.041Z,19.30
2018-08-20T11:49:32.178Z,19.20
2018-08-20T11:52:00.634Z,19.10
2018-08-20T11:54:28.882Z,19.10
2018-08-20T11:56:57.065Z,19.10
2018-08-20T11:59:25.212Z,19.20
2018-08-20T12:01:53.421Z,19.30
2018-08-20T12:04:22.866Z,19.30
2018-08-20T12:06:51.206Z,19.20
2018-08-20T12:09:19.323Z,19.30
2018-08-20T12:11:47.610Z,19.30
2018-08-20T12:14:15.794Z,19.30
2018-08-20T12:16:43.932Z,19.30
2018-08-20T12:19:12.213Z,19.30
2018-08-20T12:21:40.309Z,19.30
2018-08-20T12:24:08.425Z,19.20
2018-08-20T12:26:36.538Z,19.20
2018-08-20T12:29:04.731Z,19.10
2018-08-20T12:31:32.838Z,19.00
2018-08-20T12:34:00.977Z,19.00
2018-08-20T12:36:29.103Z,18.90
2018-08-20T12:38:57.229Z,19.00
2018-08-20T12:41:25.342Z,19.10
2018-08-20T12:43:53.495Z,19.30
2018-08-20T12:46:21.611Z,19.50
2018-08-20T12:48:51.517Z,19.50
2018-08-20T12:51:20.402Z,19.50
2018-08-20T12:53:48.553Z,19.40
2018-08-20T12:56:16.690Z,19.30
2018-08-20T12:58:53.678Z,19.10
2018-08-20T13:01:21.795Z,18.90
2018-08-20T13:03:50.490Z,18.80
2018-08-20T13:06:18.637Z,18.80
2018-08-20T13:08:47.568Z,18.70
2018-08-20T13:11:16.146Z,18.90
2018-08-20T13:13:44.716Z,19.00
2018-08-20T13:16:12.977Z,19.00
2018-08-20T13:18:40.989Z,19.20
2018-08-20T13:21:09.146Z,19.30
2018-08-20T13:23:37.311Z,19.50
2018-08-20T13:26:05.574Z,19.40
2018-08-20T13:28:33.709Z,19.40
2018-08-20T13:31:02.251Z,19.40
2018-08-20T13:33:30.663Z,19.30
2018-08-20T13:35:58.815Z,19.30
2018-08-20T13:38:26.938Z,19.40
2018-08-20T13:40:55.082Z,19.60
2018-08-20T13:43:23.222Z,19.60
2018-08-20T13:45:51.366Z,19.70
2018-08-20T13:48:19.505Z,19.60
2018-08-20T13:50:47.646Z,19.50
2018-08-20T13:53:15.782Z,19.50
2018-08-20T13:55:43.920Z,19.30
2018-08-20T13:58:12.042Z,19.30
2018-08-20T14:00:40.193Z,19.20
2018-08-20T14:03:08.326Z,19.10
2018-08-20T14:05:36.462Z,19.10
2018-08-20T14:08:04.906Z,19.20
2018-08-20T14:10:33.028Z,19.30
2018-08-20T14:13:01.150Z,19.60
2018-08-20T14:15:29.337Z,20.00
2018-08-20T14:17:57.454Z,20.30
2018-08-20T14:20:25.590Z,20.60
2018-08-20T14:22:53.716Z,20.60
2018-08-20T14:25:21.850Z,20.70
2018-08-20T14:27:50.018Z,20.70
2018-08-20T14:30:18.188Z,20.80
2018-08-20T14:32:46.378Z,20.80
2018-08-20T14:35:14.496Z,20.80
2018-08-20T14:37:42.617Z,20.70
2018-08-20T14:40:13.485Z,20.70
2018-08-20T14:42:41.958Z,20.70
2018-08-20T14:45:11.781Z,20.80
2018-08-20T14:47:41.041Z,20.90
2018-08-20T14:50:13.672Z,21.00
2018-08-20T14:52:42.157Z,21.00
2018-08-20T14:55:10.818Z,21.00
2018-08-20T14:57:38.945Z,21.10
2018-08-20T15:00:09.494Z,21.10
2018-08-20T15:02:37.658Z,21.10
2018-08-20T15:05:05.802Z,21.10
2018-08-20T15:07:35.756Z,20.90
2018-08-20T15:10:04.317Z,20.80
2018-08-20T15:12:32.459Z,20.80
2018-08-20T15:15:00.631Z,20.80
2018-08-20T15:17:28.741Z,21.00
2018-08-20T15:19:56.865Z,21.00
2018-08-20T15:22:25.003Z,20.90
2018-08-20T15:24:53.141Z,20.90
2018-08-20T15:27:21.266Z,21.00
2018-08-20T15:29:49.376Z,21.00
2018-08-20T15:32:17.567Z,20.90
2018-08-20T15:34:45.639Z,20.90
2018-08-20T15:37:13.776Z,20.90
2018-08-20T15:39:42.008Z,20.90
2018-08-20T15:42:10.042Z,20.80
2018-08-20T15:44:38.165Z,20.60
2018-08-20T15:47:06.305Z,20.60
2018-08-20T15:49:34.434Z,20.50
2018-08-20T15:52:02.564Z,20.40
2018-08-20T15:54:30.672Z,20.40
2018-08-20T15:56:58.801Z,20.30
2018-08-20T15:59:26.929Z,20.20
2018-08-20T16:01:55.063Z,20.10
2018-08-20T16:04:23.213Z,19.90
2018-08-20T16:06:51.369Z,19.90
2018-08-20T16:09:19.498Z,19.80
2018-08-20T16:11:47.657Z,19.80
2018-08-20T16:14:15.797Z,19.80
2018-08-20T16:16:44.071Z,19.90
2018-08-20T16:19:13.234Z,20.00
2018-08-20T16:21:41.458Z,20.10
2018-08-20T16:24:09.682Z,20.10
2018-08-20T16:26:37.873Z,20.30
2018-08-20T16:29:06.095Z,20.30
2018-08-20T16:31:34.329Z,20.20
2018-08-20T16:34:02.481Z,20.30
2018-08-20T16:36:30.675Z,20.30
2018-08-20T16:38:58.838Z,20.30
2018-08-20T16:41:27.025Z,20.20
2018-08-20T16:43:55.162Z,20.10
2018-08-20T16:46:23.369Z,20.00
2018-08-20T16:48:51.596Z,19.90
2018-08-20T16:51:19.831Z,19.80
2018-08-20T16:53:47.987Z,19.80
2018-08-20T16:56:16.276Z,19.70
2018-08-20T16:58:44.441Z,19.70
2018-08-20T17:01:15.070Z,19.60
2018-08-20T17:03:43.231Z,19.60
2018-08-20T17:06:11.399Z,19.60
2018-08-20T17:08:42.027Z,19.60
2018-08-20T17:11:10.938Z,19.60
2018-08-20T17:13:39.061Z,19.60
2018-08-20T17:16:09.697Z,19.50
2018-08-20T17:18:37.917Z,19.30
2018-08-20T17:21:06.242Z,19.30
2018-08-20T17:23:35.001Z,19.20
2018-08-20T17:26:03.141Z,19.10
2018-08-20T17:28:31.335Z,19.00
2018-08-20T17:31:01.162Z,19.00
2018-08-20T17:33:32.925Z,18.90
2018-08-20T17:36:01.090Z,18.90
2018-08-20T17:38:29.310Z,18.80
2018-08-20T17:40:57.438Z,18.80
2018-08-20T17:43:25.624Z,18.70
2018-08-20T17:45:55.311Z,18.70
2018-08-20T17:48:30.765Z,18.60
2018-08-20T17:50:59.235Z,18.60
2018-08-20T17:53:38.824Z,18.50
2018-08-20T17:56:06.966Z,18.30
2018-08-20T17:58:35.106Z,18.20
2018-08-20T18:01:04.286Z,18.10
2018-08-20T18:03:32.849Z,18.00
2018-08-20T18:06:02.949Z,18.00
2018-08-20T18:08:32.145Z,18.00
2018-08-20T18:11:00.601Z,17.90
2018-08-20T18:13:36.530Z,17.90
2018-08-20T18:16:06.278Z,17.90
2018-08-20T18:18:34.978Z,17.90
2018-08-20T18:21:03.125Z,17.90
2018-08-20T18:23:32.862Z,17.80
2018-08-20T18:26:01.051Z,17.80
2018-08-20T18:28:38.722Z,17.80
2018-08-20T18:31:10.766Z,17.80
2018-08-20T18:33:40.258Z,17.70
2018-08-20T18:36:14.902Z,17.70
2018-08-20T18:38:48.994Z,17.70
2018-08-20T18:41:17.277Z,17.70
2018-08-20T18:43:45.698Z,17.70
2018-08-20T18:46:14.050Z,17.70
2018-08-20T18:48:42.402Z,17.70
2018-08-20T18:51:14.260Z,17.70
2018-08-20T18:53:42.499Z,17.70
2018-08-20T18:56:14.248Z,17.70
2018-08-20T18:58:43.134Z,17.70
2018-08-20T19:01:11.897Z,17.70
2018-08-20T19:03:49.435Z,17.70
2018-08-20T19:06:18.310Z,17.60
2018-08-20T19:08:46.479Z,17.60
2018-08-20T19:11:15.470Z,17.50
2018-08-20T19:13:44.166Z,17.50
2018-08-20T19:16:35.588Z,17.50
2018-08-20T19:19:03.886Z,17.50
2018-08-20T19:21:32.394Z,17.40
2018-08-20T19:24:01.026Z,17.40
2018-08-20T19:26:30.227Z,17.40
2018-08-20T19:28:58.479Z,17.40
2018-08-20T19:31:26.621Z,17.40
2018-08-20T19:33:54.826Z,17.40
2018-08-20T19:36:22.970Z,17.40
2018-08-20T19:38:51.159Z,17.40
2018-08-20T19:41:19.334Z,17.40
2018-08-20T19:43:48.564Z,17.50
2018-08-20T19:46:31.907Z,17.40
2018-08-20T19:49:05.647Z,17.40
2018-08-20T19:51:34.877Z,17.40
2018-08-20T19:54:03.057Z,17.40
2018-08-20T19:56:37.404Z,17.30
2018-08-20T19:59:05.797Z,17.40
2018-08-20T20:01:35.026Z,17.20
2018-08-20T20:04:05.233Z,17.10
2018-08-20T20:06:38.200Z,17.50
2018-08-20T20:09:09.982Z,17.00
2018-08-20T20:11:47.081Z,17.00
2018-08-20T20:14:22.837Z,16.80
2018-08-20T20:16:57.138Z,17.00
2018-08-20T20:19:30.097Z,16.70
2018-08-20T20:21:59.292Z,16.80
2018-08-20T20:24:27.583Z,16.90
2018-08-20T20:26:55.759Z,16.90
2018-08-20T20:29:24.038Z,16.80
2018-08-20T20:31:52.302Z,16.80
2018-08-20T20:34:20.561Z,16.80
2018-08-20T20:36:50.802Z,16.80
2018-08-20T20:39:19.999Z,17.00
2018-08-20T20:41:48.296Z,16.70
2018-08-20T20:44:16.539Z,16.80
2018-08-20T20:46:44.828Z,16.90
2018-08-20T20:49:13.114Z,16.80
2018-08-20T20:51:41.406Z,16.80
2018-08-20T20:54:10.702Z,16.80
2018-08-20T20:56:39.015Z,16.80
2018-08-20T20:59:07.506Z,16.80
2018-08-20T21:01:35.732Z,16.80
2018-08-20T21:04:06.328Z,16.70
2018-08-20T21:06:40.452Z,16.80
2018-08-20T21:09:10.045Z,16.80
2018-08-20T21:11:38.250Z,16.90
2018-08-20T21:14:06.530Z,16.90
2018-08-20T21:16:34.711Z,16.80
2018-08-20T21:19:03.631Z,16.80
2018-08-20T21:21:33.483Z,16.80
2018-08-20T21:24:01.779Z,16.70
2018-08-20T21:26:30.044Z,16.70
2018-08-20T21:28:58.323Z,16.70
2018-08-20T21:31:30.385Z,16.70
2018-08-20T21:34:00.207Z,16.60
2018-08-20T21:36:28.400Z,16.60
2018-08-20T21:38:56.659Z,16.60
2018-08-20T21:41:26.480Z,16.60
2018-08-20T21:43:54.814Z,16.60
2018-08-20T21:46:23.083Z,17.00
2018-08-20T21:48:51.299Z,16.60
2018-08-20T21:51:22.535Z,16.60
2018-08-20T21:53:50.815Z,16.60
2018-08-20T21:56:19.113Z,16.70
2018-08-20T21:58:47.277Z,16.70
2018-08-20T22:01:16.616Z,16.70
2018-08-20T22:03:45.052Z,16.60
2018-08-20T22:06:23.909Z,16.60
2018-08-20T22:08:53.150Z,16.60
2018-08-20T22:11:22.344Z,16.50
2018-08-20T22:13:51.544Z,16.40
2018-08-20T22:16:31.780Z,16.40
2018-08-20T22:19:03.682Z,16.40
2018-08-20T22:21:31.953Z,16.50
2018-08-20T22:24:02.153Z,16.50
2018-08-20T22:26:30.304Z,16.50
2018-08-20T22:28:58.899Z,16.50
2018-08-20T22:31:27.110Z,16.50
2018-08-20T22:34:00.633Z,16.40
2018-08-20T22:36:30.217Z,16.30
2018-08-20T22:39:00.657Z,16.30
2018-08-20T22:41:34.338Z,16.20
2018-08-20T22:44:02.499Z,16.10
2018-08-20T22:46:30.682Z,16.10
2018-08-20T22:49:03.570Z,16.20
2018-08-20T22:51:33.723Z,16.10
2018-08-20T22:54:02.299Z,16.10
2018-08-20T22:56:32.187Z,16.10
2018-08-20T22:59:08.566Z,16.20
2018-08-20T23:01:36.838Z,16.20
2018-08-20T23:04:06.350Z,16.10
2018-08-20T23:06:34.634Z,16.10
2018-08-20T23:09:19.864Z,16.10
2018-08-20T23:11:49.078Z,16.10
2018-08-20T23:14:18.302Z,16.10
2018-08-20T23:16:52.832Z,16.10
2018-08-20T23:19:22.122Z,16.10
2018-08-20T23:21:53.562Z,16.00
2018-08-20T23:24:21.730Z,16.00
2018-08-20T23:26:49.900Z,16.00
2018-08-20T23:29:18.199Z,16.00
2018-08-20T23:31:46.433Z,15.90
2018-08-20T23:34:21.247Z,16.00
2018-08-20T23:36:53.358Z,15.90
2018-08-20T23:39:21.532Z,15.80
2018-08-20T23:41:49.811Z,15.70
2018-08-20T23:44:18.106Z,15.70
2018-08-20T23:46:49.538Z,15.50
2018-08-20T23:49:17.853Z,15.50
2018-08-20T23:51:46.133Z,15.40
2018-08-20T23:54:15.416Z,15.30
2018-08-20T23:56:49.090Z,15.20
2018-08-20T23:59:17.249Z,15.10
